Time;durP1;ratioP1;P1;durP2;ratioP2;P2;SDS_P1;SDS_P2;PMS_P1;PMS_P2;Temp;Humidity;BMP_temperature;BMP_pressure;BME280_temperature;BME280_humidity;BME280_pressure;Samples;Min_cycle;Max_cycle;Signal;HPM_P1;HPM_P2
2023/02/23 00:01:13;;;;;;;19.67;15.33;;;9.50;99.90;;;;;;5032498;28;20682;-56
2023/02/23 00:03:41;;;;;;;22.53;14.80;;;9.40;99.90;;;;;;5032382;28;20214;-57
2023/02/23 00:06:09;;;;;;;19.60;14.87;;;9.30;99.90;;;;;;5032322;28;20234;-56
2023/02/23 00:08:36;;;;;;;20.13;14.93;;;9.40;99.90;;;;;;5032661;28;20280;-54
2023/02/23 00:11:04;;;;;;;21.53;14.80;;;9.30;99.90;;;;;;5032487;28;20268;-54
2023/02/23 00:13:36;;;;;;;23.30;15.47;;;9.30;99.90;;;;;;5032200;28;20586;-54
2023/02/23 00:16:05;;;;;;;19.40;14.77;;;9.30;99.90;;;;;;5032134;28;20202;-54
2023/02/23 00:18:43;;;;;;;21.63;15.30;;;9.40;99.90;;;;;;5032077;28;20276;-54
2023/02/23 00:21:14;;;;;;;22.07;14.60;;;9.50;99.90;;;;;;5032189;28;20271;-55
2023/02/23 00:23:47;;;;;;;23.43;14.60;;;9.70;99.90;;;;;;5032071;28;20237;-55
2023/02/23 00:26:14;;;;;;;22.00;15.17;;;9.80;99.90;;;;;;5031774;28;20211;-54
2023/02/23 00:28:42;;;;;;;19.60;15.00;;;9.80;99.90;;;;;;5032271;28;20828;-54
2023/02/23 00:31:10;;;;;;;20.23;14.87;;;9.80;99.90;;;;;;5032003;28;20281;-56
2023/02/23 00:33:36;;;;;;;24.60;15.87;;;9.80;99.90;;;;;;5031942;28;20525;-54
2023/02/23 00:36:05;;;;;;;22.73;15.27;;;9.90;99.90;;;;;;5031851;28;20206;-55
2023/02/23 00:38:34;;;;;;;21.17;15.07;;;10.00;99.90;;;;;;5031951;28;20668;-54
2023/02/23 00:41:05;;;;;;;20.40;14.50;;;10.00;99.90;;;;;;5031943;28;20206;-54
2023/02/23 00:43:34;;;;;;;21.00;15.13;;;10.10;99.90;;;;;;5032000;28;20229;-54
2023/02/23 00:46:04;;;;;;;19.30;14.47;;;10.10;99.90;;;;;;5031660;28;20457;-54
2023/02/23 00:48:31;;;;;;;24.80;15.53;;;10.10;99.90;;;;;;5031416;28;20264;-54
2023/02/23 00:50:59;;;;;;;23.00;14.60;;;10.10;99.90;;;;;;5031664;28;20206;-54
2023/02/23 00:53:26;;;;;;;18.10;14.37;;;10.00;99.90;;;;;;5032007;28;20207;-55
2023/02/23 00:55:55;;;;;;;20.37;15.20;;;10.00;99.90;;;;;;5031527;28;20680;-54
2023/02/23 00:58:21;;;;;;;20.57;14.93;;;10.00;99.90;;;;;;5031752;28;20226;-56
2023/02/23 01:00:48;;;;;;;24.93;15.57;;;10.10;99.90;;;;;;5033953;28;20206;-55
2023/02/23 01:03:15;;;;;;;22.13;14.93;;;10.10;99.90;;;;;;5035998;28;20214;-55
2023/02/23 01:05:42;;;;;;;23.07;15.60;;;10.20;99.90;;;;;;5035619;28;20214;-55
2023/02/23 01:08:10;;;;;;;20.60;14.73;;;10.20;99.90;;;;;;5035314;28;20226;-54
2023/02/23 01:10:41;;;;;;;21.80;15.17;;;10.20;99.90;;;;;;5035462;28;20236;-55
2023/02/23 01:13:10;;;;;;;28.63;16.43;;;10.20;99.90;;;;;;5035351;28;20261;-55
2023/02/23 01:15:43;;;;;;;21.30;15.50;;;10.30;99.90;;;;;;5035255;28;20562;-54
2023/02/23 01:18:10;;;;;;;22.80;15.17;;;10.30;99.90;;;;;;5035209;28;20257;-54
2023/02/23 01:20:40;;;;;;;19.20;14.50;;;10.30;99.90;;;;;;5035640;28;20233;-54
2023/02/23 01:23:08;;;;;;;18.40;14.80;;;10.20;99.90;;;;;;5035348;28;20614;-54
2023/02/23 01:25:35;;;;;;;20.00;14.67;;;10.30;99.90;;;;;;5035287;28;20633;-55
2023/02/23 01:28:01;;;;;;;23.63;15.53;;;10.20;99.90;;;;;;5034925;28;20229;-54
2023/02/23 01:30:29;;;;;;;22.90;14.87;;;10.10;99.90;;;;;;5035170;28;20210;-56
2023/02/23 01:32:56;;;;;;;20.50;15.80;;;10.10;99.90;;;;;;5035039;28;20234;-57
2023/02/23 01:35:23;;;;;;;21.97;15.07;;;10.00;99.90;;;;;;5035041;28;20214;-54
2023/02/23 01:37:50;;;;;;;20.60;15.67;;;10.10;99.90;;;;;;5034797;28;20597;-54
2023/02/23 01:40:27;;;;;;;20.47;14.57;;;10.20;99.90;;;;;;5034843;28;20218;-55
2023/02/23 01:42:55;;;;;;;22.67;15.30;;;10.30;99.90;;;;;;5035180;28;20202;-54
2023/02/23 01:45:30;;;;;;;21.37;15.43;;;10.40;99.90;;;;;;5035048;28;20210;-54
2023/02/23 01:48:01;;;;;;;20.67;14.87;;;10.50;99.90;;;;;;5034693;28;20295;-54
2023/02/23 01:50:30;;;;;;;20.30;14.87;;;10.50;99.90;;;;;;5034837;28;20211;-54
2023/02/23 01:52:58;;;;;;;19.60;14.20;;;10.40;99.90;;;;;;5034486;28;20253;-55
2023/02/23 01:55:28;;;;;;;22.33;15.77;;;10.40;99.90;;;;;;5034794;28;20210;-54
2023/02/23 01:58:02;;;;;;;20.33;15.47;;;10.40;99.90;;;;;;5034501;28;20230;-54
2023/02/23 02:00:31;;;;;;;23.70;16.43;;;10.40;99.90;;;;;;5034752;28;20210;-54
2023/02/23 02:03:02;;;;;;;20.40;15.87;;;10.40;99.90;;;;;;5035029;28;20202;-54
2023/02/23 02:05:30;;;;;;;20.30;16.10;;;10.40;99.90;;;;;;5034594;28;20252;-54
2023/02/23 02:07:58;;;;;;;21.90;16.00;;;10.40;99.90;;;;;;5034216;28;20599;-55
2023/02/23 02:10:43;;;;;;;22.53;16.10;;;10.40;99.90;;;;;;5034145;28;20744;-55
2023/02/23 02:13:13;;;;;;;23.13;15.97;;;10.40;99.90;;;;;;5034840;28;20226;-56
2023/02/23 02:16:07;;;;;;;22.17;15.90;;;10.40;99.90;;;;;;5034364;28;20241;-55
2023/02/23 02:18:43;;;;;;;23.67;16.10;;;10.50;99.90;;;;;;5034711;28;20233;-53
2023/02/23 02:21:50;;;;;;;22.40;15.80;;;10.60;99.90;;;;;;5034492;28;20205;-54
2023/02/23 02:24:51;;;;;;;20.07;15.43;;;10.60;99.90;;;;;;5011973;28;20283;-53
2023/02/23 02:27:34;;;;;;;25.23;16.20;;;10.70;99.90;;;;;;5034179;28;20222;-54
2023/02/23 02:30:38;;;;;;;23.90;16.17;;;10.70;99.90;;;;;;5034487;28;20197;-54
2023/02/23 02:34:01;;;;;;;22.10;16.53;;;10.70;99.90;;;;;;5034214;28;20329;-54
2023/02/23 02:37:01;;;;;;;24.67;16.93;;;10.70;99.90;;;;;;4972783;28;20577;-59
2023/02/23 02:39:36;;;;;;;20.60;15.27;;;10.60;99.90;;;;;;4957121;28;20790;-54
2023/02/23 02:42:16;;;;;;;24.53;16.17;;;10.60;99.90;;;;;;5027154;28;20202;-54
2023/02/23 02:44:50;;;;;;;21.57;15.83;;;10.50;99.90;;;;;;5034078;28;20209;-53
2023/02/23 02:47:22;;;;;;;23.73;16.20;;;10.50;99.90;;;;;;5033412;28;20580;-54
2023/02/23 02:49:58;;;;;;;25.87;16.83;;;10.50;99.90;;;;;;5034776;28;20214;-57
2023/02/23 02:52:30;;;;;;;24.30;16.53;;;10.40;99.90;;;;;;5034117;28;20749;-56
2023/02/23 02:55:08;;;;;;;23.33;16.43;;;10.40;99.90;;;;;;5034102;28;20218;-58
2023/02/23 02:57:36;;;;;;;21.37;15.33;;;10.40;99.90;;;;;;5033429;28;20226;-57
2023/02/23 04:18:55;;;;;;;26.90;19.00;;;10.70;99.90;;;;;;5032068;28;20214;-58
2023/02/23 04:21:22;;;;;;;27.53;19.07;;;10.60;99.90;;;;;;5032172;28;20698;-58
2023/02/23 04:23:49;;;;;;;24.67;19.23;;;10.70;99.90;;;;;;5032152;28;20224;-57
2023/02/23 04:26:15;;;;;;;26.20;18.90;;;10.70;99.90;;;;;;5032074;28;20213;-58
2023/02/23 04:28:42;;;;;;;27.57;20.50;;;10.70;99.90;;;;;;5032259;28;20908;-58
2023/02/23 04:31:09;;;;;;;27.17;19.53;;;10.80;99.90;;;;;;5032044;28;20206;-57
2023/02/23 04:33:37;;;;;;;30.37;20.43;;;10.80;99.90;;;;;;5032375;28;20237;-57
2023/02/23 04:36:04;;;;;;;25.53;18.57;;;10.80;99.90;;;;;;5036372;28;20276;-57
2023/02/23 04:38:31;;;;;;;28.63;19.90;;;10.80;99.90;;;;;;5036141;28;20229;-56
2023/02/23 04:40:58;;;;;;;28.17;20.37;;;10.90;99.90;;;;;;5036240;28;20237;-57
2023/02/23 04:43:24;;;;;;;31.40;20.60;;;10.90;99.90;;;;;;5035889;28;20213;-57
2023/02/23 04:45:52;;;;;;;26.80;20.00;;;10.90;99.90;;;;;;5035975;28;20206;-57
2023/02/23 04:48:18;;;;;;;24.67;19.00;;;10.90;99.90;;;;;;5035511;28;20269;-57
2023/02/23 04:50:46;;;;;;;25.63;19.67;;;10.90;99.90;;;;;;5036249;28;20217;-57
2023/02/23 04:53:13;;;;;;;26.40;19.47;;;10.90;99.90;;;;;;5035981;28;20226;-56
2023/02/23 04:55:40;;;;;;;24.67;19.13;;;10.80;99.90;;;;;;5035966;28;20580;-57
2023/02/23 04:58:06;;;;;;;25.30;19.27;;;10.80;99.90;;;;;;5035663;28;20226;-57
2023/02/23 05:00:33;;;;;;;24.77;19.43;;;10.80;99.90;;;;;;5036239;28;20238;-56
2023/02/23 05:03:00;;;;;;;26.40;18.93;;;10.70;99.90;;;;;;5036313;28;20210;-58
2023/02/23 05:05:27;;;;;;;26.50;20.50;;;10.90;99.90;;;;;;5035898;28;20206;-58
2023/02/23 05:07:55;;;;;;;29.57;19.83;;;10.90;99.90;;;;;;5035565;28;20232;-57
2023/02/23 05:10:21;;;;;;;26.10;19.10;;;11.00;99.90;;;;;;5036031;28;20210;-57
2023/02/23 05:12:48;;;;;;;25.23;19.30;;;11.00;99.90;;;;;;5035416;28;20233;-59
2023/02/23 05:15:15;;;;;;;26.17;19.50;;;11.00;99.90;;;;;;5035842;28;20207;-58
2023/02/23 05:17:42;;;;;;;24.90;19.53;;;11.00;99.90;;;;;;5035616;28;20291;-57
2023/02/23 05:20:11;;;;;;;23.83;18.47;;;10.90;99.90;;;;;;5035798;28;20209;-58
2023/02/23 05:22:38;;;;;;;27.27;19.07;;;10.90;99.90;;;;;;5035453;28;20208;-55
2023/02/23 05:25:07;;;;;;;23.57;18.83;;;10.90;99.90;;;;;;5035443;28;20206;-58
2023/02/23 05:27:34;;;;;;;27.80;19.13;;;10.90;99.90;;;;;;5034872;28;20276;-56
2023/02/23 05:30:01;;;;;;;24.90;18.53;;;10.90;99.90;;;;;;5035597;28;20206;-58
2023/02/23 05:32:28;;;;;;;28.63;19.77;;;10.90;99.90;;;;;;5035432;28;20206;-58
2023/02/23 05:34:55;;;;;;;30.97;20.40;;;11.00;99.90;;;;;;5035490;28;20213;-58
2023/02/23 05:37:21;;;;;;;27.27;19.53;;;11.00;99.90;;;;;;5035065;28;20232;-59
2023/02/23 05:39:48;;;;;;;25.77;18.77;;;11.00;99.90;;;;;;5035524;28;20210;-58
2023/02/23 05:42:16;;;;;;;26.67;19.60;;;11.00;99.90;;;;;;5035235;28;20623;-58
2023/02/23 05:44:43;;;;;;;24.17;18.97;;;11.10;99.90;;;;;;5035759;28;20345;-58
2023/02/23 05:47:10;;;;;;;27.33;18.90;;;11.10;99.90;;;;;;5034383;28;20218;-58
2023/02/23 05:49:37;;;;;;;26.33;20.07;;;11.20;99.90;;;;;;5035716;28;20245;-58
2023/02/23 05:52:04;;;;;;;28.03;19.90;;;11.30;99.90;;;;;;5035354;28;20214;-58
2023/02/23 05:54:31;;;;;;;30.23;19.90;;;11.20;99.90;;;;;;5034971;28;20229;-57
2023/02/23 05:56:58;;;;;;;24.53;19.13;;;11.10;99.90;;;;;;5034867;28;20618;-58
2023/02/23 05:59:26;;;;;;;24.63;18.57;;;11.00;99.90;;;;;;5035386;28;20237;-57
2023/02/23 06:01:53;;;;;;;24.73;19.17;;;10.90;99.90;;;;;;5035092;28;20210;-57
2023/02/23 06:04:22;;;;;;;22.77;18.27;;;10.90;99.90;;;;;;5034883;28;20206;-58
2023/02/23 06:06:48;;;;;;;25.27;18.87;;;10.90;99.90;;;;;;5034603;28;20236;-58
2023/02/23 06:09:15;;;;;;;24.03;18.87;;;11.00;99.90;;;;;;5034586;28;20226;-58
2023/02/23 06:11:42;;;;;;;28.63;19.60;;;11.10;99.90;;;;;;5034786;28;20206;-58
2023/02/23 06:14:09;;;;;;;27.87;19.57;;;11.00;99.90;;;;;;5034815;28;20233;-58
2023/02/23 06:16:38;;;;;;;28.77;19.67;;;11.10;99.90;;;;;;5034222;28;20693;-57
2023/02/23 06:19:04;;;;;;;27.83;19.70;;;11.20;99.90;;;;;;5034279;28;20221;-57
2023/02/23 06:21:31;;;;;;;25.57;18.90;;;11.20;99.90;;;;;;5034603;28;20206;-58
2023/02/23 06:23:59;;;;;;;28.03;18.97;;;11.30;99.90;;;;;;5034136;28;20207;-58
2023/02/23 06:26:26;;;;;;;22.80;17.90;;;11.40;99.90;;;;;;5034294;28;20290;-58
2023/02/23 06:28:53;;;;;;;25.87;18.47;;;11.40;99.90;;;;;;5034141;28;20233;-58
2023/02/23 06:31:19;;;;;;;28.33;19.23;;;11.40;99.90;;;;;;5034207;28;20210;-58
2023/02/23 06:33:48;;;;;;;24.13;18.30;;;11.40;99.90;;;;;;5033977;28;20620;-57
2023/02/23 06:36:14;;;;;;;26.47;18.47;;;11.40;99.90;;;;;;5033982;28;20675;-57
2023/02/23 06:38:41;;;;;;;32.10;20.10;;;11.50;99.90;;;;;;5033717;28;20256;-58
2023/02/23 06:41:09;;;;;;;34.90;18.60;;;11.40;99.90;;;;;;5034215;28;20210;-57
2023/02/23 06:43:36;;;;;;;24.20;18.67;;;11.50;99.90;;;;;;5034106;28;20617;-58
2023/02/23 06:46:03;;;;;;;25.03;19.50;;;11.50;99.90;;;;;;5033919;28;20202;-58
2023/02/23 06:48:29;;;;;;;26.63;18.87;;;11.40;99.90;;;;;;5033740;28;20788;-58
2023/02/23 06:50:59;;;;;;;23.93;18.30;;;11.40;99.90;;;;;;5033760;28;20210;-58
2023/02/23 06:53:26;;;;;;;27.83;19.00;;;11.40;99.90;;;;;;5033883;28;20257;-58
2023/02/23 06:55:52;;;;;;;24.73;17.43;;;11.30;99.90;;;;;;5034145;28;20213;-57
2023/02/23 06:58:19;;;;;;;27.27;19.03;;;11.30;99.90;;;;;;5032904;28;20236;-58
2023/02/23 07:00:46;;;;;;;23.70;19.10;;;11.30;99.90;;;;;;5034120;28;20241;-58
2023/02/23 07:03:13;;;;;;;25.57;19.33;;;11.30;99.90;;;;;;5034076;28;20206;-58
2023/02/23 07:05:39;;;;;;;26.23;18.50;;;11.30;99.90;;;;;;5033847;28;20210;-57
2023/02/23 07:08:08;;;;;;;26.63;19.03;;;11.30;99.90;;;;;;5033690;28;20222;-58
2023/02/23 07:10:34;;;;;;;26.77;19.10;;;11.40;99.90;;;;;;5033510;28;20206;-57
2023/02/23 07:13:01;;;;;;;24.80;18.93;;;11.40;99.90;;;;;;5033738;28;20207;-58
2023/02/23 07:15:28;;;;;;;27.20;18.87;;;11.40;99.90;;;;;;5033675;28;20214;-58
2023/02/23 07:17:55;;;;;;;26.83;18.77;;;11.40;99.90;;;;;;5032940;28;20229;-57
2023/02/23 07:20:22;;;;;;;25.80;18.73;;;11.40;99.90;;;;;;5033755;28;20203;-58
2023/02/23 07:22:49;;;;;;;22.73;17.93;;;11.40;99.90;;;;;;5033781;28;20214;-57
2023/02/23 07:25:17;;;;;;;29.93;19.30;;;11.40;99.90;;;;;;5033416;28;20277;-58
2023/02/23 07:27:44;;;;;;;25.23;18.90;;;11.50;99.90;;;;;;5033164;28;20222;-58
2023/02/23 07:30:13;;;;;;;25.57;19.23;;;11.50;99.90;;;;;;5033426;28;20229;-57
2023/02/23 07:32:39;;;;;;;22.83;18.50;;;11.50;99.90;;;;;;5033369;28;20615;-57
2023/02/23 07:35:07;;;;;;;26.73;18.73;;;11.60;99.90;;;;;;5033469;28;20234;-58
2023/02/23 07:37:34;;;;;;;26.33;18.80;;;11.60;99.90;;;;;;5032761;28;20233;-57
2023/02/23 07:40:00;;;;;;;25.17;19.07;;;11.60;99.90;;;;;;5033053;28;20214;-58
2023/02/23 07:42:28;;;;;;;27.20;19.00;;;11.60;99.90;;;;;;5032934;28;20602;-59
2023/02/23 07:44:55;;;;;;;25.40;18.63;;;11.60;99.90;;;;;;5032823;28;20198;-58
2023/02/23 07:47:29;;;;;;;24.90;18.23;;;11.70;99.90;;;;;;5032389;28;20213;-57
2023/02/23 07:49:59;;;;;;;27.47;18.50;;;11.70;99.90;;;;;;5032767;28;20650;-58
2023/02/23 07:52:26;;;;;;;23.93;17.90;;;11.70;99.90;;;;;;5032828;28;20214;-58
2023/02/23 07:54:53;;;;;;;26.80;18.50;;;11.80;99.90;;;;;;5033015;28;20248;-57
2023/02/23 07:57:20;;;;;;;23.23;18.57;;;11.90;99.90;;;;;;5032577;28;20237;-58
2023/02/23 07:59:48;;;;;;;24.37;18.90;;;12.00;99.90;;;;;;5032659;28;20245;-58
2023/02/23 08:02:15;;;;;;;21.10;17.40;;;12.10;99.90;;;;;;5032656;28;20206;-58
2023/02/23 08:04:42;;;;;;;25.40;18.90;;;12.10;99.90;;;;;;5032417;28;20224;-57
2023/02/23 08:07:09;;;;;;;22.93;17.57;;;12.20;99.90;;;;;;5032168;28;20210;-57
2023/02/23 08:09:35;;;;;;;23.57;17.50;;;12.30;99.90;;;;;;5032419;28;20202;-58
2023/02/23 08:12:02;;;;;;;22.57;16.73;;;12.40;99.90;;;;;;5032321;28;20697;-57
2023/02/23 08:14:29;;;;;;;24.60;16.17;;;12.30;99.90;;;;;;5032271;28;20763;-58
2023/02/23 08:16:57;;;;;;;23.80;17.10;;;12.30;99.90;;;;;;5031894;28;20981;-59
2023/02/23 08:19:24;;;;;;;23.00;17.20;;;12.40;99.90;;;;;;5032420;28;20233;-58
2023/02/23 08:21:50;;;;;;;21.40;17.20;;;12.40;99.90;;;;;;5032059;28;20221;-58
2023/02/23 08:24:17;;;;;;;24.53;18.40;;;12.50;99.90;;;;;;5032312;28;20213;-58
2023/02/23 08:26:44;;;;;;;23.60;16.93;;;12.40;99.90;;;;;;5031792;28;20233;-58
2023/02/23 08:29:11;;;;;;;24.97;17.40;;;12.50;99.90;;;;;;5032122;28;20234;-58
2023/02/23 08:31:37;;;;;;;22.47;17.60;;;12.50;99.90;;;;;;5032256;28;20206;-59
2023/02/23 08:34:05;;;;;;;21.60;17.53;;;12.60;99.90;;;;;;5031980;28;20226;-58
2023/02/23 08:36:32;;;;;;;23.47;17.63;;;12.70;99.90;;;;;;5031941;28;20209;-58
2023/02/23 08:39:01;;;;;;;24.70;17.93;;;12.90;99.90;;;;;;5032059;28;20640;-58
2023/02/23 08:41:27;;;;;;;22.57;17.13;;;13.10;99.90;;;;;;5032479;28;20210;-59
2023/02/23 08:43:54;;;;;;;21.03;15.57;;;13.30;99.90;;;;;;5032318;28;20202;-60
2023/02/23 08:46:21;;;;;;;25.10;18.63;;;13.40;99.90;;;;;;5032051;28;20206;-57
2023/02/23 08:48:48;;;;;;;21.77;15.63;;;13.60;99.90;;;;;;5032129;28;20233;-55
2023/02/23 08:51:16;;;;;;;24.70;15.10;;;13.80;99.90;;;;;;5031691;28;20256;-55
2023/02/23 08:53:43;;;;;;;19.57;16.03;;;13.90;99.90;;;;;;5031388;28;20316;-55
2023/02/23 08:56:11;;;;;;;22.70;15.87;;;14.00;99.90;;;;;;5031595;28;20214;-55
2023/02/23 08:58:38;;;;;;;19.77;14.47;;;14.20;99.90;;;;;;5031479;28;20276;-56
2023/02/23 09:01:05;;;;;;;19.63;15.00;;;14.20;99.90;;;;;;5031767;28;20566;-55
2023/02/23 09:03:35;;;;;;;16.33;13.87;;;14.20;99.90;;;;;;5031809;28;20225;-57
2023/02/23 09:06:07;;;;;;;18.07;13.67;;;14.20;99.90;;;;;;5032166;28;20662;-59
2023/02/23 09:08:36;;;;;;;18.83;13.97;;;14.20;99.90;;;;;;5031499;28;20649;-57
2023/02/23 09:11:02;;;;;;;17.90;13.80;;;14.30;99.90;;;;;;5032209;28;20206;-56
2023/02/23 09:13:29;;;;;;;17.10;12.47;;;14.30;99.90;;;;;;5031805;28;20214;-56
2023/02/23 09:15:56;;;;;;;16.77;12.87;;;14.40;99.90;;;;;;5031904;28;20206;-56
2023/02/23 09:18:28;;;;;;;17.90;12.80;;;14.30;99.90;;;;;;5031732;28;20284;-55
2023/02/23 09:20:55;;;;;;;17.43;12.30;;;14.30;99.90;;;;;;5032411;28;20260;-56
2023/02/23 09:23:23;;;;;;;17.90;13.03;;;14.30;99.90;;;;;;5035603;28;20266;-58
2023/02/23 09:25:51;;;;;;;16.90;13.50;;;14.40;99.90;;;;;;5035929;28;20625;-56
2023/02/23 09:28:19;;;;;;;15.50;12.93;;;14.50;99.90;;;;;;5035276;28;20237;-56
2023/02/23 09:30:47;;;;;;;21.27;12.67;;;14.60;99.90;;;;;;5035369;28;20210;-57
2023/02/23 09:33:14;;;;;;;19.17;13.37;;;14.70;99.90;;;;;;5035653;28;20567;-57
2023/02/23 09:35:41;;;;;;;16.73;12.73;;;14.90;99.90;;;;;;5034931;28;20230;-57
2023/02/23 09:38:08;;;;;;;17.30;11.87;;;14.90;99.90;;;;;;5035247;28;20231;-55
2023/02/23 09:40:44;;;;;;;14.47;11.03;;;14.80;99.90;;;;;;5035308;28;20212;-55
2023/02/23 09:43:15;;;;;;;15.30;12.10;;;14.70;99.90;;;;;;5035035;28;20213;-56
2023/02/23 09:45:43;;;;;;;12.53;10.47;;;14.50;99.90;;;;;;5034931;28;20214;-55
2023/02/23 09:48:16;;;;;;;10.97;8.70;;;14.50;99.90;;;;;;5034226;28;20702;-57
2023/02/23 09:50:47;;;;;;;11.93;8.10;;;14.50;99.90;;;;;;5034890;28;20729;-56
2023/02/23 09:53:24;;;;;;;12.10;7.80;;;14.40;99.90;;;;;;5034847;28;20210;-54
2023/02/23 09:55:53;;;;;;;13.57;7.80;;;14.60;99.90;;;;;;5034796;28;20230;-55
2023/02/23 09:58:24;;;;;;;10.07;6.97;;;14.80;99.90;;;;;;5034061;28;20642;-55
2023/02/23 10:01:05;;;;;;;11.00;7.30;;;15.00;99.90;;;;;;5035023;28;20210;-55
2023/02/23 10:03:33;;;;;;;10.13;7.77;;;15.20;99.90;;;;;;5034801;28;20217;-55
2023/02/23 10:06:04;;;;;;;12.07;7.10;;;15.50;99.90;;;;;;5034572;28;20662;-55
2023/02/23 10:08:44;;;;;;;9.30;6.93;;;15.80;99.90;;;;;;5034468;28;20236;-56
2023/02/23 10:11:24;;;;;;;7.93;6.00;;;16.10;99.90;;;;;;5035130;28;20209;-59
2023/02/23 10:14:07;;;;;;;11.85;5.55;;;16.50;99.90;;;;;;5035123;28;20238;-57
2023/02/23 10:16:44;;;;;;;8.40;5.43;;;16.80;99.90;;;;;;5034788;28;20670;-56
2023/02/23 10:19:21;;;;;;;9.98;5.38;;;17.10;99.90;;;;;;5034697;28;20226;-56
2023/02/23 10:21:54;;;;;;;8.05;5.78;;;17.30;99.90;;;;;;5034480;28;20206;-57
2023/02/23 10:24:25;;;;;;;9.02;5.15;;;17.50;99.90;;;;;;5034743;28;20314;-59
2023/02/23 10:26:54;;;;;;;7.65;5.35;;;17.70;99.90;;;;;;5034299;28;20210;-56
2023/02/23 10:29:27;;;;;;;9.40;4.95;;;18.00;99.90;;;;;;5034505;28;20659;-56
2023/02/23 10:31:58;;;;;;;7.30;5.22;;;18.00;99.90;;;;;;5034397;28;20256;-59
2023/02/23 10:34:27;;;;;;;8.52;5.07;;;17.90;99.90;;;;;;5033987;28;20225;-56
2023/02/23 10:36:59;;;;;;;9.30;5.53;;;17.80;99.90;;;;;;5033750;28;20578;-55
2023/02/23 10:39:26;;;;;;;7.05;4.50;;;17.40;99.90;;;;;;5034011;28;20222;-56
2023/02/23 10:41:53;;;;;;;6.03;3.97;;;16.80;99.90;;;;;;5033704;28;20213;-56
2023/02/23 10:44:24;;;;;;;5.15;3.90;;;16.40;99.90;;;;;;5033571;28;20199;-55
2023/02/23 10:46:54;;;;;;;5.13;3.45;;;16.10;99.90;;;;;;5033527;28;20702;-57
2023/02/23 10:49:24;;;;;;;5.05;3.45;;;15.90;99.90;;;;;;5033715;28;20238;-55
2023/02/23 10:51:56;;;;;;;8.27;5.30;;;16.00;99.90;;;;;;5033765;28;20209;-56
2023/02/23 10:54:43;;;;;;;9.07;6.43;;;16.10;99.90;;;;;;5033571;28;20222;-55
2023/02/23 10:57:15;;;;;;;8.57;6.50;;;16.20;99.90;;;;;;5033425;28;20452;-55
2023/02/23 11:00:07;;;;;;;7.63;5.37;;;16.30;99.90;;;;;;5033774;28;20276;-58
2023/02/23 11:02:35;;;;;;;8.95;4.97;;;16.30;99.90;;;;;;5033446;28;20242;-55
2023/02/23 11:05:05;;;;;;;7.65;4.32;;;16.20;99.90;;;;;;5033342;28;20206;-56
2023/02/23 11:07:33;;;;;;;5.60;3.65;;;16.20;99.90;;;;;;5033403;28;20233;-55
2023/02/23 11:10:24;;;;;;;5.90;3.83;;;16.30;99.90;;;;;;5033331;28;20611;-58
2023/02/23 11:12:51;;;;;;;5.78;4.25;;;16.20;99.90;;;;;;5033369;28;20722;-56
2023/02/23 11:15:32;;;;;;;9.48;4.45;;;16.50;99.90;;;;;;5033264;28;20218;-55
2023/02/23 11:18:01;;;;;;;10.20;5.32;;;16.70;99.90;;;;;;5032809;28;20726;-55
2023/02/23 11:20:34;;;;;;;7.95;4.28;;;17.10;99.90;;;;;;5033371;28;20212;-55
2023/02/23 11:23:08;;;;;;;6.93;4.57;;;17.10;99.90;;;;;;5033382;28;20214;-55
2023/02/23 11:25:34;;;;;;;5.25;3.88;;;17.10;99.90;;;;;;5033298;28;20405;-55
2023/02/23 11:28:01;;;;;;;6.82;4.07;;;17.30;99.90;;;;;;5032627;28;20234;-55
2023/02/23 11:30:35;;;;;;;6.53;4.00;;;17.20;99.90;;;;;;5032866;28;20675;-55
2023/02/23 11:33:09;;;;;;;6.85;3.40;;;17.20;99.90;;;;;;5033253;28;20569;-55
2023/02/23 11:35:37;;;;;;;6.13;3.40;;;17.20;99.90;;;;;;5033054;28;20320;-56
2023/02/23 11:38:16;;;;;;;6.72;4.00;;;17.20;99.90;;;;;;5032635;28;20230;-55
2023/02/23 11:40:57;;;;;;;6.82;3.80;;;17.30;99.90;;;;;;5033389;28;20217;-55
2023/02/23 11:43:24;;;;;;;6.25;3.72;;;17.40;99.90;;;;;;5032285;28;20202;-56
2023/02/23 11:45:55;;;;;;;7.47;4.30;;;17.30;99.90;;;;;;5030811;28;20448;-57
2023/02/23 11:48:26;;;;;;;6.00;4.40;;;17.40;99.90;;;;;;5030344;28;20242;-64
2023/02/23 11:50:55;;;;;;;7.20;4.03;;;17.70;99.90;;;;;;5032502;28;20213;-61
2023/02/23 11:53:30;;;;;;;5.25;3.75;;;18.00;99.90;;;;;;5032839;28;20210;-58
2023/02/23 11:56:01;;;;;;;6.65;4.22;;;18.20;99.90;;;;;;5032003;28;20295;-58
2023/02/23 11:58:36;;;;;;;8.25;4.47;;;18.10;99.90;;;;;;5032315;28;20230;-58
2023/02/23 12:01:10;;;;;;;7.15;4.07;;;18.30;99.90;;;;;;5032371;28;20206;-59
2023/02/23 12:03:42;;;;;;;6.85;3.92;;;18.50;99.90;;;;;;5032240;28;20757;-58
2023/02/23 12:06:10;;;;;;;7.22;3.67;;;18.30;99.90;;;;;;5032570;28;20237;-58
2023/02/23 12:08:43;;;;;;;7.15;3.35;;;17.90;99.90;;;;;;5031170;28;20702;-58
2023/02/23 12:11:14;;;;;;;10.85;6.20;;;18.10;99.90;;;;;;5031141;28;20220;-58
2023/02/23 12:13:46;;;;;;;7.07;3.97;;;18.50;99.90;;;;;;5028490;28;20198;-62
2023/02/23 12:16:19;;;;;;;6.40;3.22;;;18.80;99.90;;;;;;5030620;28;20226;-59
2023/02/23 12:18:53;;;;;;;4.20;2.88;;;18.90;99.90;;;;;;5031290;28;20280;-59
2023/02/23 12:21:32;;;;;;;4.72;3.13;;;18.90;99.90;;;;;;5031461;28;20202;-62
2023/02/23 12:24:13;;;;;;;9.25;4.03;;;19.00;99.90;;;;;;5031562;28;20210;-59
2023/02/23 12:26:48;;;;;;;4.78;3.10;;;19.20;99.90;;;;;;5031709;28;20202;-62
2023/02/23 12:29:23;;;;;;;4.93;2.83;;;19.50;99.90;;;;;;5031105;28;20280;-61
2023/02/23 12:31:57;;;;;;;4.75;2.78;;;19.30;99.90;;;;;;5031996;28;20209;-60
2023/02/23 12:34:29;;;;;;;3.92;2.80;;;19.20;99.90;;;;;;5031357;28;20735;-60
2023/02/23 12:36:59;;;;;;;7.53;2.97;;;19.30;99.90;;;;;;5031201;28;20202;-63
2023/02/23 12:39:31;;;;;;;4.05;2.42;;;19.40;99.90;;;;;;5030886;28;20710;-60
2023/02/23 12:42:07;;;;;;;5.22;3.00;;;19.50;99.90;;;;;;5031900;28;20202;-61
2023/02/23 12:44:44;;;;;;;5.53;3.15;;;19.40;99.90;;;;;;5031832;28;20213;-62
2023/02/23 12:47:24;;;;;;;5.75;3.55;;;19.30;99.90;;;;;;5030473;28;20213;-58
2023/02/23 12:49:56;;;;;;;5.53;2.80;;;18.80;99.90;;;;;;5032170;28;20301;-57
2023/02/23 12:52:28;;;;;;;6.47;3.50;;;18.50;99.90;;;;;;5032012;28;20301;-57
2023/02/23 12:54:55;;;;;;;8.07;4.18;;;18.40;99.90;;;;;;5031668;28;20239;-57
2023/02/23 12:57:31;;;;;;;7.43;3.13;;;18.30;99.90;;;;;;5034771;28;20570;-57
2023/02/23 13:00:39;;;;;;;4.35;3.00;;;18.40;99.90;;;;;;5036053;28;20213;-58
2023/02/23 13:03:42;;;;;;;8.93;3.60;;;18.30;99.90;;;;;;5020259;28;20202;-57
2023/02/23 13:06:16;;;;;;;7.20;3.88;;;18.00;99.90;;;;;;5009926;28;20577;-57
2023/02/23 13:08:56;;;;;;;7.65;3.92;;;17.60;99.90;;;;;;5035517;28;20287;-57
2023/02/23 13:11:46;;;;;;;5.93;3.90;;;17.30;99.90;;;;;;5035580;28;20581;-57
2023/02/23 13:14:16;;;;;;;8.23;3.92;;;17.20;99.90;;;;;;5035379;28;20280;-57
2023/02/23 13:16:48;;;;;;;9.10;4.00;;;17.20;99.90;;;;;;5035404;28;20226;-57
2023/02/23 13:19:20;;;;;;;5.18;3.42;;;17.20;99.90;;;;;;5035424;28;20585;-57
2023/02/23 13:21:54;;;;;;;7.25;3.72;;;17.10;99.90;;;;;;5035463;28;20213;-57
2023/02/23 13:24:23;;;;;;;8.27;3.67;;;17.20;99.90;;;;;;5035285;28;20214;-57
2023/02/23 13:26:55;;;;;;;8.18;3.80;;;17.40;99.90;;;;;;5035211;28;20586;-57
2023/02/23 13:29:34;;;;;;;7.78;4.00;;;17.40;99.90;;;;;;5034928;28;20222;-57
2023/02/23 13:32:02;;;;;;;8.98;3.53;;;17.40;99.90;;;;;;5035584;28;20562;-56
2023/02/23 13:34:35;;;;;;;7.78;3.90;;;17.40;99.90;;;;;;5035028;28;20581;-57
2023/02/23 13:37:06;;;;;;;7.70;3.80;;;17.40;99.90;;;;;;5035113;28;20226;-57
2023/02/23 13:39:48;;;;;;;6.70;3.42;;;17.50;99.90;;;;;;5035222;28;20233;-58
2023/02/23 13:42:26;;;;;;;6.18;3.78;;;17.50;99.90;;;;;;5035007;28;20213;-57
2023/02/23 13:45:01;;;;;;;8.10;3.55;;;17.30;99.90;;;;;;5035260;28;20221;-57
2023/02/23 13:47:35;;;;;;;7.22;3.03;;;17.10;99.90;;;;;;5034549;28;20206;-57
2023/02/23 13:50:15;;;;;;;8.57;3.60;;;17.10;99.90;;;;;;5035211;28;20209;-56
2023/02/23 13:52:43;;;;;;;5.50;3.45;;;17.00;99.90;;;;;;5035254;28;20702;-57
2023/02/23 13:55:36;;;;;;;8.60;4.20;;;16.90;99.90;;;;;;5034652;28;20237;-57
2023/02/23 13:58:06;;;;;;;7.85;3.30;;;16.70;99.90;;;;;;5034665;28;20661;-58
2023/02/23 14:00:33;;;;;;;10.00;3.83;;;16.50;99.90;;;;;;5034600;28;20245;-57
2023/02/23 14:03:04;;;;;;;8.65;3.45;;;16.40;99.90;;;;;;5034752;28;20599;-57
2023/02/23 14:05:43;;;;;;;9.75;3.72;;;16.30;99.90;;;;;;5034748;28;20198;-57
2023/02/23 14:08:23;;;;;;;7.30;3.65;;;16.30;99.90;;;;;;5034015;28;20264;-57
2023/02/23 14:10:54;;;;;;;5.22;3.50;;;16.50;99.90;;;;;;5034740;28;20236;-57